createdAt,value
2023-01-09T00:01:25.715Z,7.23
2023-01-09T00:03:53.883Z,7.26
2023-01-09T00:06:22.084Z,7.25
2023-01-09T00:08:50.216Z,7.27
2023-01-09T00:11:34.666Z,7.16
2023-01-09T00:17:43.831Z,7.28
2023-01-09T00:24:08.500Z,7.44
2023-01-09T00:28:39.737Z,7.17
2023-01-09T00:30:18.697Z,6.83
2023-01-09T00:33:02.820Z,6.17
2023-01-09T00:35:43.693Z,5.94
2023-01-09T00:39:07.385Z,5.82
2023-01-09T00:41:40.583Z,5.75
2023-01-09T00:44:33.244Z,5.83
2023-01-09T00:47:23.974Z,5.84
2023-01-09T00:49:54.519Z,5.90
2023-01-09T00:52:23.680Z,5.84
2023-01-09T00:54:58.878Z,5.88
2023-01-09T00:57:27.245Z,5.91
2023-01-09T00:59:55.299Z,6.07
2023-01-09T01:02:25.189Z,6.04
2023-01-09T01:05:10.761Z,6.13
2023-01-09T01:07:42.925Z,6.25
2023-01-09T01:10:13.974Z,6.29
2023-01-09T01:12:44.141Z,6.29
2023-01-09T01:15:14.590Z,6.32
2023-01-09T01:17:44.525Z,6.32
2023-01-09T01:20:17.396Z,6.19
2023-01-09T01:22:45.672Z,6.31
2023-01-09T01:25:17.046Z,6.30
2023-01-09T01:27:45.480Z,6.34
2023-01-09T01:30:15.687Z,6.22
2023-01-09T01:32:45.669Z,6.25
2023-01-09T01:35:13.698Z,6.23
2023-01-09T01:37:41.954Z,6.21
2023-01-09T01:40:12.478Z,6.11
2023-01-09T01:42:46.876Z,6.14
2023-01-09T01:45:17.018Z,6.19
2023-01-09T01:47:52.536Z,6.23
2023-01-09T01:50:28.608Z,6.26
2023-01-09T01:53:04.461Z,6.30
2023-01-09T01:55:34.597Z,6.27
2023-01-09T01:58:07.235Z,6.21
2023-01-09T02:00:41.695Z,6.15
2023-01-09T02:03:11.688Z,6.02
2023-01-09T02:05:41.875Z,6.04
2023-01-09T02:08:10.225Z,5.91
2023-01-09T02:10:40.168Z,6.01
2023-01-09T02:13:11.249Z,6.00
2023-01-09T02:15:50.682Z,5.86
2023-01-09T02:18:37.133Z,5.80
2023-01-09T02:21:11.227Z,5.74
2023-01-09T02:24:10.120Z,5.76
2023-01-09T02:27:02.970Z,5.65
2023-01-09T02:33:00.155Z,5.58
2023-01-09T02:35:46.193Z,5.49
2023-01-09T02:38:24.554Z,5.52
2023-01-09T02:41:01.123Z,5.61
2023-01-09T02:43:29.492Z,5.47
2023-01-09T02:45:58.751Z,5.43
2023-01-09T02:48:28.205Z,5.49
2023-01-09T02:51:11.383Z,5.39
2023-01-09T02:53:52.024Z,5.29
2023-01-09T02:56:40.186Z,5.29
2023-01-09T02:59:22.353Z,5.16
2023-01-09T03:02:03.427Z,5.21
2023-01-09T03:04:45.220Z,5.22
2023-01-09T03:07:19.361Z,5.14
2023-01-09T03:09:50.398Z,5.18
2023-01-09T03:12:22.707Z,5.07
2023-01-09T03:14:54.395Z,5.03
2023-01-09T03:17:29.146Z,5.02
2023-01-09T03:20:00.199Z,4.98
2023-01-09T03:22:28.219Z,4.93
2023-01-09T03:24:56.081Z,4.87
2023-01-09T03:27:25.521Z,4.81
2023-01-09T03:29:53.707Z,4.79
2023-01-09T03:32:21.636Z,4.83
2023-01-09T03:34:49.559Z,4.86
2023-01-09T03:37:18.860Z,4.82
2023-01-09T03:39:46.804Z,4.78
2023-01-09T03:42:16.119Z,4.79
2023-01-09T03:44:51.185Z,4.68
2023-01-09T03:47:19.203Z,4.60
2023-01-09T03:49:47.261Z,4.41
2023-01-09T03:52:15.597Z,4.64
2023-01-09T03:54:44.883Z,4.69
2023-01-09T03:57:14.201Z,4.60
2023-01-09T03:59:42.163Z,4.69
2023-01-09T04:02:10.341Z,4.59
2023-01-09T04:04:40.697Z,4.55
2023-01-09T04:07:08.641Z,4.61
2023-01-09T04:09:36.700Z,4.48
2023-01-09T04:12:09.067Z,4.52
2023-01-09T04:14:36.966Z,4.54
2023-01-09T04:17:05.151Z,4.45
2023-01-09T04:19:33.354Z,4.47
2023-01-09T04:22:01.343Z,4.39
2023-01-09T04:24:29.790Z,4.41
2023-01-09T04:26:58.237Z,4.42
2023-01-09T04:29:27.541Z,4.35
2023-01-09T04:31:55.498Z,4.39
2023-01-09T04:34:25.626Z,4.31
2023-01-09T04:36:53.983Z,4.28
2023-01-09T04:39:22.423Z,4.16
2023-01-09T04:41:52.553Z,4.13
2023-01-09T04:44:26.234Z,4.25
2023-01-09T04:46:58.909Z,4.23
2023-01-09T04:49:45.131Z,4.34
2023-01-09T04:53:03.751Z,4.32
2023-01-09T04:59:20.266Z,4.60
2023-01-09T05:01:48.221Z,4.68
2023-01-09T05:04:27.079Z,4.71
2023-01-09T05:06:55.216Z,4.66
2023-01-09T05:09:26.536Z,4.74
2023-01-09T05:11:54.577Z,4.76
2023-01-09T05:14:23.005Z,4.76
2023-01-09T05:16:50.811Z,4.80
2023-01-09T05:19:18.905Z,4.82
2023-01-09T05:21:48.164Z,4.79
2023-01-09T05:24:16.589Z,4.81
2023-01-09T05:26:44.595Z,4.81
2023-01-09T05:29:12.670Z,4.80
2023-01-09T05:31:40.703Z,4.81
2023-01-09T05:34:08.654Z,4.90
2023-01-09T05:36:36.640Z,4.92
2023-01-09T05:39:07.920Z,4.87
2023-01-09T05:41:35.939Z,4.94
2023-01-09T05:44:04.908Z,4.89
2023-01-09T05:46:37.773Z,5.02
2023-01-09T05:49:05.612Z,5.01
2023-01-09T05:51:33.497Z,4.99
2023-01-09T05:54:02.126Z,4.96
2023-01-09T05:56:31.447Z,4.98
2023-01-09T05:58:59.342Z,4.83
2023-01-09T06:01:27.384Z,4.92
2023-01-09T06:03:58.370Z,4.88
2023-01-09T06:06:26.231Z,4.89
2023-01-09T06:08:54.474Z,4.93
2023-01-09T06:11:22.309Z,4.91
2023-01-09T06:13:51.690Z,4.91
2023-01-09T06:16:19.702Z,4.81
2023-01-09T06:18:50.479Z,4.90
2023-01-09T06:21:20.392Z,4.88
2023-01-09T06:23:51.443Z,4.80
2023-01-09T06:26:19.650Z,4.90
2023-01-09T06:28:47.602Z,4.87
2023-01-09T06:31:16.841Z,4.88
2023-01-09T06:33:44.859Z,4.89
2023-01-09T06:36:12.898Z,4.90
2023-01-09T06:38:40.811Z,4.89
2023-01-09T06:41:09.142Z,4.93
2023-01-09T06:43:38.411Z,4.94
2023-01-09T06:46:06.777Z,4.92
2023-01-09T06:48:37.308Z,4.90
2023-01-09T06:51:05.590Z,4.81
2023-01-09T06:53:36.124Z,4.87
2023-01-09T06:56:04.257Z,4.85
2023-01-09T06:58:32.319Z,4.81
2023-01-09T07:01:00.790Z,4.72
2023-01-09T07:03:28.773Z,4.52
2023-01-09T07:05:58.065Z,4.52
2023-01-09T07:08:27.078Z,4.37
2023-01-09T07:10:56.079Z,4.39
2023-01-09T07:13:24.246Z,4.37
2023-01-09T07:15:53.686Z,4.39
2023-01-09T07:18:21.729Z,4.39
2023-01-09T07:20:49.775Z,4.47
2023-01-09T07:23:20.039Z,4.41
2023-01-09T07:25:48.059Z,4.31
2023-01-09T07:28:16.251Z,4.30
2023-01-09T07:30:44.180Z,4.37
2023-01-09T07:33:12.094Z,4.40
2023-01-09T07:35:40.229Z,4.38
2023-01-09T07:38:08.257Z,4.26
2023-01-09T07:40:38.649Z,4.10
2023-01-09T07:43:06.758Z,4.34
2023-01-09T07:45:37.193Z,4.37
2023-01-09T07:48:09.952Z,4.43
2023-01-09T07:50:38.521Z,4.54
2023-01-09T07:53:15.166Z,4.64
2023-01-09T07:55:45.366Z,4.53
2023-01-09T07:58:15.357Z,4.67
2023-01-09T08:00:43.604Z,4.71
2023-01-09T08:03:11.708Z,4.75
2023-01-09T08:05:39.793Z,4.79
2023-01-09T08:08:08.082Z,4.80
2023-01-09T08:10:36.169Z,4.86
2023-01-09T08:13:05.565Z,4.86
2023-01-09T08:15:33.946Z,4.94
2023-01-09T08:18:01.938Z,4.96
2023-01-09T08:20:31.161Z,4.97
2023-01-09T08:23:00.095Z,4.99
2023-01-09T08:25:28.216Z,4.99
2023-01-09T08:27:57.215Z,5.02
2023-01-09T08:30:26.607Z,5.03
2023-01-09T08:32:55.640Z,5.08
2023-01-09T08:35:23.802Z,5.12
2023-01-09T08:37:53.795Z,5.20
2023-01-09T08:40:21.763Z,5.20
2023-01-09T08:43:07.369Z,5.19
2023-01-09T08:45:54.090Z,5.12
2023-01-09T08:48:22.030Z,5.17
2023-01-09T08:50:50.847Z,5.28
2023-01-09T08:53:20.791Z,5.34
2023-01-09T08:55:56.195Z,5.45
2023-01-09T08:58:24.678Z,5.43
2023-01-09T09:01:01.938Z,5.41
2023-01-09T09:03:37.997Z,5.39
2023-01-09T09:06:09.212Z,5.44
2023-01-09T09:08:45.028Z,5.57
2023-01-09T09:11:13.017Z,5.48
2023-01-09T09:13:47.760Z,5.47
2023-01-09T09:16:18.514Z,5.61
2023-01-09T09:18:47.644Z,5.64
2023-01-09T09:21:16.597Z,5.61
2023-01-09T09:23:46.960Z,5.71
2023-01-09T09:26:16.056Z,5.77
2023-01-09T09:28:51.086Z,5.86
2023-01-09T09:31:20.447Z,5.98
2023-01-09T09:33:48.576Z,5.97
2023-01-09T09:36:16.560Z,5.88
2023-01-09T09:38:44.590Z,5.91
2023-01-09T09:42:01.963Z,5.97
2023-01-09T09:44:53.773Z,5.97
2023-01-09T09:47:43.380Z,6.08
2023-01-09T09:50:43.822Z,6.20
2023-01-09T09:53:24.750Z,6.35
2023-01-09T09:55:57.916Z,6.29
2023-01-09T09:58:33.123Z,6.29
2023-01-09T10:01:05.397Z,6.38
2023-01-09T10:03:38.819Z,6.45
2023-01-09T10:06:18.850Z,6.48
2023-01-09T10:08:55.656Z,6.61
2023-01-09T10:11:35.001Z,6.50
2023-01-09T10:14:13.182Z,6.49
2023-01-09T10:17:13.181Z,6.54
2023-01-09T10:20:06.856Z,6.50
2023-01-09T10:22:46.427Z,6.58
2023-01-09T10:25:24.187Z,6.43
2023-01-09T10:28:17.583Z,6.40
2023-01-09T10:30:52.415Z,6.36
2023-01-09T10:33:39.578Z,6.36
2023-01-09T10:36:40.062Z,6.40
2023-01-09T10:39:16.304Z,6.36
2023-01-09T10:41:55.176Z,6.33
2023-01-09T10:44:28.051Z,6.46
2023-01-09T10:46:57.500Z,6.63
2023-01-09T10:49:26.141Z,6.56
2023-01-09T10:52:05.814Z,6.47
2023-01-09T10:54:34.115Z,6.50
2023-01-09T10:57:11.712Z,6.64
2023-01-09T10:59:42.577Z,6.72
2023-01-09T11:02:31.809Z,6.80
2023-01-09T11:04:59.936Z,6.56
2023-01-09T11:07:32.812Z,6.61
2023-01-09T11:10:02.572Z,6.58
2023-01-09T11:12:32.244Z,6.61
2023-01-09T11:15:28.901Z,6.50
2023-01-09T11:18:14.957Z,6.61
2023-01-09T11:20:42.928Z,6.63
2023-01-09T11:23:29.217Z,6.70
2023-01-09T11:25:58.936Z,6.71
2023-01-09T11:28:27.537Z,6.74
2023-01-09T11:30:59.848Z,6.77
2023-01-09T11:33:29.991Z,6.85
2023-01-09T11:36:01.789Z,6.95
2023-01-09T11:38:32.819Z,7.00
2023-01-09T11:41:02.784Z,7.11
2023-01-09T11:43:37.875Z,7.18
2023-01-09T11:46:07.725Z,6.85
2023-01-09T11:48:41.163Z,7.00
2023-01-09T11:51:20.991Z,7.11
2023-01-09T11:54:00.543Z,7.27
2023-01-09T11:56:30.864Z,7.18
2023-01-09T11:59:00.789Z,7.10
2023-01-09T12:02:06.757Z,7.12
2023-01-09T12:04:40.193Z,7.17
2023-01-09T12:07:38.885Z,7.24
2023-01-09T12:10:29.557Z,7.26
2023-01-09T12:13:08.087Z,7.09
2023-01-09T12:15:47.398Z,7.07
2023-01-09T12:18:27.134Z,7.30
2023-01-09T12:21:25.556Z,7.15
2023-01-09T12:24:07.277Z,7.10
2023-01-09T12:26:46.567Z,7.17
2023-01-09T12:29:39.483Z,7.00
2023-01-09T12:32:29.216Z,7.06
2023-01-09T12:35:03.259Z,7.15
2023-01-09T12:37:48.746Z,7.25
2023-01-09T12:40:30.339Z,7.19
2023-01-09T12:43:10.468Z,7.20
2023-01-09T12:45:55.320Z,7.30
2023-01-09T12:48:41.132Z,7.11
2023-01-09T12:51:22.225Z,7.22
2023-01-09T12:53:56.945Z,7.07
2023-01-09T12:56:33.066Z,7.14
2023-01-09T12:59:12.706Z,7.12
2023-01-09T13:01:47.243Z,7.22
2023-01-09T13:04:20.838Z,7.16
2023-01-09T13:06:55.267Z,7.15
2023-01-09T13:09:28.501Z,7.11
2023-01-09T13:12:15.730Z,7.14
2023-01-09T13:14:56.217Z,7.20
2023-01-09T13:17:44.772Z,7.11
2023-01-09T13:20:25.082Z,7.11
2023-01-09T13:22:58.954Z,7.02
2023-01-09T13:25:43.388Z,6.96
2023-01-09T13:28:20.159Z,7.03
2023-01-09T13:31:18.116Z,6.99
2023-01-09T13:33:54.185Z,7.06
2023-01-09T13:36:27.921Z,7.06
2023-01-09T13:38:59.640Z,7.15
2023-01-09T13:41:50.200Z,7.19
2023-01-09T13:44:25.489Z,7.16
2023-01-09T13:46:58.270Z,7.25
2023-01-09T13:49:48.809Z,7.38
2023-01-09T13:52:39.401Z,7.57
2023-01-09T13:55:36.191Z,7.73
2023-01-09T13:58:34.292Z,7.74
2023-01-09T14:01:08.594Z,7.50
2023-01-09T14:07:20.464Z,7.34
2023-01-09T14:09:59.000Z,7.15
2023-01-09T14:12:28.769Z,7.18
2023-01-09T14:15:02.279Z,7.13
2023-01-09T14:17:36.823Z,7.35
2023-01-09T14:20:08.893Z,7.42
2023-01-09T14:22:50.353Z,7.40
2023-01-09T14:25:27.243Z,7.40
2023-01-09T14:28:11.637Z,7.41
2023-01-09T14:31:02.222Z,7.22
2023-01-09T14:33:36.375Z,7.44
2023-01-09T14:36:27.444Z,7.45
2023-01-09T14:39:01.835Z,7.40
2023-01-09T14:42:09.634Z,7.55
2023-01-09T14:44:48.727Z,7.56
2023-01-09T14:47:22.908Z,7.44
2023-01-09T14:49:57.124Z,7.45
2023-01-09T14:52:30.705Z,7.45
2023-01-09T14:55:04.277Z,7.27
2023-01-09T14:57:35.260Z,7.40
2023-01-09T15:00:16.132Z,7.37
2023-01-09T15:02:47.061Z,7.32
2023-01-09T15:05:19.446Z,7.30
2023-01-09T15:07:54.781Z,7.32
2023-01-09T15:10:31.946Z,7.39
2023-01-09T15:13:02.841Z,7.44
2023-01-09T15:15:31.451Z,7.32
2023-01-09T15:18:01.825Z,7.47
2023-01-09T15:20:32.533Z,7.49
2023-01-09T15:23:03.733Z,7.43
2023-01-09T15:25:40.452Z,7.48
2023-01-09T15:28:38.291Z,7.51
2023-01-09T15:34:02.740Z,7.04
2023-01-09T15:36:35.922Z,6.95
2023-01-09T15:39:09.365Z,6.70
2023-01-09T15:44:55.222Z,6.35
2023-01-09T15:47:31.626Z,6.27
2023-01-09T15:50:22.165Z,6.19
2023-01-09T15:52:54.724Z,6.06
2023-01-09T15:55:26.484Z,6.09
2023-01-09T15:57:59.755Z,5.98
2023-01-09T16:00:46.915Z,6.04
2023-01-09T16:03:33.800Z,6.04
2023-01-09T16:06:08.419Z,5.88
2023-01-09T16:08:39.630Z,5.82
2023-01-09T16:11:10.975Z,5.65
2023-01-09T16:13:47.212Z,5.69
2023-01-09T16:16:25.491Z,5.62
2023-01-09T16:18:56.364Z,5.61
2023-01-09T16:21:57.202Z,5.74
2023-01-09T16:24:27.638Z,5.70
2023-01-09T16:27:15.428Z,5.98
2023-01-09T16:29:50.016Z,5.95
2023-01-09T16:32:26.496Z,6.12
2023-01-09T16:35:00.585Z,6.05
2023-01-09T16:37:33.047Z,6.21
2023-01-09T16:40:27.559Z,6.28
2023-01-09T16:43:03.818Z,6.23
2023-01-09T16:45:37.098Z,6.11
2023-01-09T16:48:15.646Z,6.10
2023-01-09T16:50:46.872Z,6.10
2023-01-09T16:53:17.508Z,6.07
2023-01-09T16:55:45.892Z,6.03
2023-01-09T16:58:18.800Z,6.01
2023-01-09T17:00:49.000Z,6.03
2023-01-09T17:03:28.263Z,5.98
2023-01-09T17:06:01.876Z,5.79
2023-01-09T17:08:32.093Z,5.85
2023-01-09T17:11:00.997Z,5.76
2023-01-09T17:13:31.385Z,5.71
2023-01-09T17:16:01.107Z,5.72
2023-01-09T17:18:29.917Z,5.58
2023-01-09T17:20:59.409Z,5.69
2023-01-09T17:23:28.760Z,5.43
2023-01-09T17:26:20.753Z,5.58
2023-01-09T17:29:26.087Z,5.68
2023-01-09T17:32:02.417Z,5.65
2023-01-09T17:35:13.005Z,5.59
2023-01-09T17:37:47.187Z,5.69
2023-01-09T17:40:24.273Z,5.65
2023-01-09T17:42:56.552Z,5.61
2023-01-09T17:45:24.527Z,5.54
2023-01-09T17:47:54.211Z,5.59
2023-01-09T17:50:28.364Z,5.58
2023-01-09T17:52:56.504Z,5.51
2023-01-09T17:55:30.212Z,5.48
2023-01-09T17:58:07.486Z,5.44
2023-01-09T18:00:38.950Z,5.43
2023-01-09T18:03:13.258Z,5.43
2023-01-09T18:05:41.688Z,5.39
2023-01-09T18:08:12.719Z,5.43
2023-01-09T18:10:42.491Z,5.31
2023-01-09T18:13:11.802Z,5.29
2023-01-09T18:15:43.164Z,5.18
2023-01-09T18:18:13.381Z,5.02
2023-01-09T18:20:42.209Z,5.12
2023-01-09T18:23:12.351Z,5.13
2023-01-09T18:25:42.281Z,5.08
2023-01-09T18:28:13.992Z,5.06
2023-01-09T18:30:56.022Z,5.13
2023-01-09T18:33:28.238Z,4.98
2023-01-09T18:35:56.900Z,4.75
2023-01-09T18:38:25.024Z,4.70
2023-01-09T18:40:54.208Z,4.78
2023-01-09T18:43:22.379Z,4.73
2023-01-09T18:45:53.649Z,4.69
2023-01-09T18:48:21.696Z,4.70
2023-01-09T18:50:51.591Z,4.71
2023-01-09T18:53:20.216Z,4.66
2023-01-09T18:55:48.587Z,4.68
2023-01-09T18:58:19.066Z,4.75
2023-01-09T19:00:50.454Z,5.01
2023-01-09T19:03:18.654Z,5.08
2023-01-09T19:05:46.863Z,5.00
2023-01-09T19:08:16.301Z,5.05
2023-01-09T19:10:44.428Z,5.02
2023-01-09T19:13:12.687Z,5.05
2023-01-09T19:15:41.824Z,5.00
2023-01-09T19:18:11.202Z,4.94
2023-01-09T19:20:39.881Z,4.78
2023-01-09T19:23:09.567Z,4.86
2023-01-09T19:25:41.819Z,4.69
2023-01-09T19:28:11.191Z,4.63
2023-01-09T19:30:40.534Z,4.61
2023-01-09T19:33:09.282Z,4.61
2023-01-09T19:35:37.360Z,4.72
2023-01-09T19:38:11.618Z,4.58
2023-01-09T19:40:41.117Z,4.69
2023-01-09T19:43:12.586Z,4.69
2023-01-09T19:45:41.001Z,4.72
2023-01-09T19:48:13.091Z,4.68
2023-01-09T19:50:42.121Z,4.70
2023-01-09T19:53:11.356Z,4.83
2023-01-09T19:55:43.141Z,4.82
2023-01-09T19:58:11.841Z,4.57
2023-01-09T20:00:42.192Z,4.69
2023-01-09T20:03:10.435Z,4.62
2023-01-09T20:05:39.618Z,4.59
2023-01-09T20:08:09.619Z,4.53
2023-01-09T20:10:40.021Z,4.63
2023-01-09T20:13:10.341Z,4.46
2023-01-09T20:15:40.625Z,4.44
2023-01-09T20:18:10.569Z,4.60
2023-01-09T20:20:38.708Z,4.71
2023-01-09T20:23:06.681Z,4.67
2023-01-09T20:25:36.926Z,4.70
2023-01-09T20:28:06.149Z,4.84
2023-01-09T20:30:35.626Z,4.87
2023-01-09T20:33:03.863Z,5.07
2023-01-09T20:35:33.371Z,5.07
2023-01-09T20:38:01.639Z,5.03
2023-01-09T20:40:31.553Z,4.91
2023-01-09T20:43:00.253Z,4.94
2023-01-09T20:45:37.011Z,4.90
2023-01-09T20:48:05.405Z,4.85
2023-01-09T20:50:33.806Z,4.95
2023-01-09T20:53:05.959Z,5.06
2023-01-09T20:55:35.460Z,4.94
2023-01-09T20:58:03.628Z,4.85
2023-01-09T21:00:33.182Z,4.81
2023-01-09T21:03:04.312Z,4.86
2023-01-09T21:05:32.454Z,4.73
2023-01-09T21:08:01.360Z,4.80
2023-01-09T21:10:29.474Z,4.65
2023-01-09T21:12:57.472Z,4.66
2023-01-09T21:15:26.839Z,4.65
2023-01-09T21:17:55.845Z,4.53
2023-01-09T21:20:25.279Z,4.28
2023-01-09T21:22:53.392Z,4.20
2023-01-09T21:25:23.608Z,4.08
2023-01-09T21:27:52.583Z,4.08
2023-01-09T21:30:20.773Z,4.10
2023-01-09T21:32:48.714Z,4.22
2023-01-09T21:35:16.988Z,4.36
2023-01-09T21:37:46.624Z,4.20
2023-01-09T21:40:16.836Z,4.17
2023-01-09T21:43:02.290Z,4.27
2023-01-09T21:45:47.800Z,4.31
2023-01-09T21:48:15.831Z,4.24
2023-01-09T21:50:43.912Z,4.27
2023-01-09T21:53:13.346Z,4.31
2023-01-09T21:55:55.233Z,4.40
2023-01-09T21:58:25.032Z,4.42
2023-01-09T22:01:00.709Z,4.38
2023-01-09T22:03:29.891Z,4.35
2023-01-09T22:05:57.711Z,4.34
2023-01-09T22:08:33.408Z,4.51
2023-01-09T22:11:11.837Z,4.37
2023-01-09T22:14:04.474Z,4.54
2023-01-09T22:16:34.830Z,4.67
2023-01-09T22:19:05.405Z,4.88
2023-01-09T22:21:36.458Z,4.96
2023-01-09T22:24:29.091Z,4.98
2023-01-09T22:27:12.580Z,4.98
2023-01-09T22:29:47.232Z,5.03
2023-01-09T22:32:17.767Z,4.99
2023-01-09T22:34:53.382Z,4.98
2023-01-09T22:37:26.640Z,4.97
2023-01-09T22:39:59.537Z,4.90
2023-01-09T22:42:27.915Z,4.83
2023-01-09T22:45:00.513Z,4.72
2023-01-09T22:47:31.585Z,4.70
2023-01-09T22:50:01.399Z,4.71
2023-01-09T22:52:29.487Z,4.68
2023-01-09T22:54:58.874Z,4.58
2023-01-09T22:57:26.884Z,4.43
2023-01-09T22:59:57.083Z,4.36
2023-01-09T23:02:25.258Z,4.38
2023-01-09T23:04:54.628Z,4.44
2023-01-09T23:07:22.488Z,4.22
2023-01-09T23:09:52.638Z,4.12
2023-01-09T23:12:23.389Z,3.95
2023-01-09T23:14:51.323Z,4.02
2023-01-09T23:17:21.294Z,4.05
2023-01-09T23:19:52.632Z,4.01
2023-01-09T23:22:20.999Z,4.20
2023-01-09T23:24:48.936Z,3.99
2023-01-09T23:27:16.783Z,4.02
2023-01-09T23:29:46.464Z,4.08
2023-01-09T23:32:15.650Z,4.05
2023-01-09T23:34:45.182Z,4.18
2023-01-09T23:37:13.462Z,4.18
2023-01-09T23:39:41.548Z,4.12
2023-01-09T23:42:29.056Z,4.21
2023-01-09T23:44:58.504Z,4.13
2023-01-09T23:47:26.708Z,4.13
2023-01-09T23:49:54.668Z,4.19
2023-01-09T23:52:22.917Z,4.07
2023-01-09T23:54:54.081Z,4.12
2023-01-09T23:57:24.056Z,3.82
2023-01-09T23:59:53.214Z,3.77
